createdAt,value
2022-07-29T00:02:03.662Z,2.80
2022-07-29T00:04:30.236Z,3.00
2022-07-29T00:06:56.726Z,2.97
2022-07-29T00:09:23.162Z,3.05
2022-07-29T00:11:49.744Z,3.00
2022-07-29T00:14:16.555Z,3.05
2022-07-29T00:16:43.361Z,3.40
2022-07-29T00:19:09.821Z,3.25
2022-07-29T00:21:37.404Z,3.10
2022-07-29T00:24:04.078Z,3.30
2022-07-29T00:26:32.629Z,3.00
2022-07-29T00:29:31.942Z,2.80
2022-07-29T00:31:47.141Z,3.08
2022-07-29T00:34:32.063Z,3.00
2022-07-29T00:36:58.697Z,2.97
2022-07-29T00:39:25.152Z,2.80
2022-07-29T00:41:54.731Z,3.28
2022-07-29T00:44:21.213Z,3.38
2022-07-29T00:46:47.736Z,3.00
2022-07-29T00:49:14.465Z,3.10
2022-07-29T00:51:41.718Z,3.00
2022-07-29T00:54:08.358Z,2.73
2022-07-29T00:56:35.107Z,2.97
2022-07-29T00:59:01.585Z,3.22
2022-07-29T01:01:29.425Z,2.95
2022-07-29T01:03:56.046Z,3.20
2022-07-29T01:06:23.507Z,3.10
2022-07-29T01:08:51.861Z,3.20
2022-07-29T01:11:19.319Z,3.00
2022-07-29T01:13:47.295Z,2.72
2022-07-29T01:16:26.387Z,2.90
2022-07-29T01:19:01.710Z,3.15
2022-07-29T01:21:34.252Z,2.90
2022-07-29T01:24:33.621Z,2.97
2022-07-29T01:27:03.775Z,2.72
2022-07-29T01:29:35.934Z,3.00
2022-07-29T01:32:27.840Z,2.88
2022-07-29T01:35:19.892Z,2.90
2022-07-29T01:37:51.162Z,3.08
2022-07-29T01:40:26.333Z,3.00
2022-07-29T01:42:56.746Z,2.80
2022-07-29T01:45:32.168Z,2.78
2022-07-29T01:48:07.686Z,3.20
2022-07-29T01:50:48.272Z,2.85
2022-07-29T01:53:22.563Z,3.10
2022-07-29T01:55:50.167Z,3.38
2022-07-29T01:58:19.188Z,2.85
2022-07-29T02:00:49.408Z,3.15
2022-07-29T02:03:18.500Z,2.97
2022-07-29T02:05:47.596Z,3.15
2022-07-29T02:08:14.404Z,2.92
2022-07-29T02:10:43.159Z,2.80
2022-07-29T02:13:12.254Z,3.13
2022-07-29T02:15:41.394Z,3.35
2022-07-29T02:18:17.423Z,3.00
2022-07-29T02:20:48.232Z,3.38
2022-07-29T02:23:20.120Z,2.97
2022-07-29T02:25:50.156Z,2.92
2022-07-29T02:28:19.700Z,2.75
2022-07-29T02:30:47.090Z,3.50
2022-07-29T02:33:16.637Z,2.75
2022-07-29T02:35:45.510Z,2.75
2022-07-29T02:38:34.466Z,3.00
2022-07-29T02:41:27.165Z,3.05
2022-07-29T02:44:10.164Z,3.10
2022-07-29T02:46:38.680Z,3.10
2022-07-29T02:49:10.069Z,3.20
2022-07-29T02:51:59.113Z,3.13
2022-07-29T02:54:46.866Z,2.80
2022-07-29T02:57:23.752Z,2.95
2022-07-29T02:59:54.778Z,2.75
2022-07-29T03:02:22.373Z,3.00
2022-07-29T03:04:50.227Z,3.15
2022-07-29T03:07:20.326Z,3.08
2022-07-29T03:09:47.385Z,3.00
2022-07-29T03:12:15.820Z,2.83
2022-07-29T03:14:43.022Z,2.55
2022-07-29T03:17:10.732Z,2.72
2022-07-29T03:19:37.430Z,2.97
2022-07-29T03:22:04.837Z,2.92
2022-07-29T03:24:37.290Z,2.80
2022-07-29T03:27:05.054Z,3.08
2022-07-29T03:29:33.690Z,2.78
2022-07-29T03:32:00.898Z,2.75
2022-07-29T03:34:29.198Z,3.35
2022-07-29T03:36:55.608Z,2.47
2022-07-29T03:39:26.447Z,2.80
2022-07-29T03:41:55.812Z,2.58
2022-07-29T03:44:23.512Z,3.00
2022-07-29T03:46:52.322Z,3.20
2022-07-29T03:49:20.656Z,2.80
2022-07-29T03:51:47.197Z,2.75
2022-07-29T03:54:14.010Z,2.88
2022-07-29T03:56:48.346Z,2.70
2022-07-29T03:59:16.570Z,2.65
2022-07-29T04:01:44.186Z,2.58
2022-07-29T04:04:11.084Z,2.73
2022-07-29T04:06:46.074Z,2.38
2022-07-29T04:09:15.112Z,2.50
2022-07-29T04:12:02.587Z,2.83
2022-07-29T04:14:28.734Z,2.63
2022-07-29T04:16:55.188Z,2.50
2022-07-29T04:19:21.615Z,2.80
2022-07-29T04:21:48.115Z,2.42
2022-07-29T04:24:15.291Z,2.70
2022-07-29T04:26:41.962Z,2.70
2022-07-29T04:29:08.426Z,2.60
2022-07-29T04:31:35.074Z,2.47
2022-07-29T04:34:01.547Z,2.55
2022-07-29T04:36:29.146Z,2.85
2022-07-29T04:38:56.205Z,2.50
2022-07-29T04:41:22.616Z,2.72
2022-07-29T04:43:50.017Z,2.58
2022-07-29T04:46:16.841Z,2.53
2022-07-29T04:48:43.415Z,2.80
2022-07-29T04:51:09.846Z,2.40
2022-07-29T04:53:36.299Z,2.70
2022-07-29T04:56:03.518Z,2.60
2022-07-29T04:58:29.976Z,2.53
2022-07-29T05:00:56.485Z,2.53
2022-07-29T05:03:22.910Z,2.42
2022-07-29T05:05:49.459Z,2.50
2022-07-29T05:08:15.857Z,2.55
2022-07-29T05:10:42.394Z,2.45
2022-07-29T05:13:08.998Z,2.70
2022-07-29T05:15:36.073Z,2.55
2022-07-29T05:18:02.874Z,3.95
2022-07-29T05:20:30.364Z,4.82
2022-07-29T05:22:58.530Z,3.13
2022-07-29T05:25:42.945Z,2.38
2022-07-29T05:28:11.732Z,2.35
2022-07-29T05:30:38.230Z,2.43
2022-07-29T05:33:04.756Z,2.30
2022-07-29T05:35:31.261Z,2.45
2022-07-29T05:37:57.777Z,2.40
2022-07-29T05:40:24.250Z,2.42
2022-07-29T05:42:50.760Z,2.25
2022-07-29T05:45:17.206Z,2.70
2022-07-29T05:47:44.311Z,2.15
2022-07-29T05:50:10.775Z,2.30
2022-07-29T05:52:37.230Z,2.10
2022-07-29T05:55:06.353Z,2.20
2022-07-29T05:57:33.147Z,2.60
2022-07-29T05:59:59.701Z,2.30
2022-07-29T06:02:26.276Z,2.00
2022-07-29T06:04:52.875Z,2.60
2022-07-29T06:07:19.335Z,2.30
2022-07-29T06:09:45.755Z,2.30
2022-07-29T06:12:12.205Z,2.58
2022-07-29T06:14:39.190Z,2.45
2022-07-29T06:17:06.523Z,2.22
2022-07-29T06:19:36.186Z,2.03
2022-07-29T06:22:02.768Z,2.25
2022-07-29T06:24:29.226Z,2.00
2022-07-29T06:26:55.893Z,2.42
2022-07-29T06:29:22.330Z,2.30
2022-07-29T06:31:48.760Z,2.10
2022-07-29T06:34:15.428Z,2.05
2022-07-29T06:36:42.089Z,2.10
2022-07-29T06:39:09.282Z,2.30
2022-07-29T06:41:38.005Z,2.47
2022-07-29T06:44:05.544Z,2.40
2022-07-29T06:46:32.075Z,2.20
2022-07-29T06:48:59.510Z,2.83
2022-07-29T06:51:26.069Z,2.70
2022-07-29T06:54:00.023Z,2.50
2022-07-29T06:56:30.976Z,2.10
2022-07-29T06:58:57.406Z,2.47
2022-07-29T07:01:23.908Z,3.28
2022-07-29T07:03:50.435Z,2.13
2022-07-29T07:06:17.265Z,2.30
2022-07-29T07:08:43.783Z,2.03
2022-07-29T07:11:10.262Z,2.40
2022-07-29T07:13:36.997Z,2.25
2022-07-29T07:16:04.633Z,2.42
2022-07-29T07:18:31.398Z,2.50
2022-07-29T07:20:58.363Z,2.10
2022-07-29T07:23:25.602Z,2.22
2022-07-29T07:25:52.288Z,2.40
2022-07-29T07:28:18.893Z,3.15
2022-07-29T07:30:51.222Z,2.83
2022-07-29T07:33:17.625Z,2.40
2022-07-29T07:35:45.179Z,2.90
2022-07-29T07:38:11.615Z,2.65
2022-07-29T07:40:38.187Z,2.88
2022-07-29T07:43:04.828Z,2.72
2022-07-29T07:45:33.538Z,2.80
2022-07-29T07:48:00.184Z,2.80
2022-07-29T07:50:27.430Z,3.53
2022-07-29T07:52:58.711Z,3.20
2022-07-29T07:55:26.111Z,3.30
2022-07-29T07:57:52.623Z,3.20
2022-07-29T08:00:19.226Z,2.80
2022-07-29T08:02:49.597Z,3.10
2022-07-29T08:05:19.074Z,3.13
2022-07-29T08:07:47.216Z,2.95
2022-07-29T08:10:36.796Z,3.33
2022-07-29T08:13:05.240Z,3.22
2022-07-29T08:15:31.848Z,2.90
2022-07-29T08:17:58.302Z,3.10
2022-07-29T08:20:25.069Z,3.65
2022-07-29T08:22:51.871Z,3.90
2022-07-29T08:25:21.251Z,2.95
2022-07-29T08:27:48.460Z,3.47
2022-07-29T08:30:15.342Z,3.97
2022-07-29T08:32:53.679Z,3.72
2022-07-29T08:35:22.384Z,3.80
2022-07-29T08:37:49.118Z,3.28
2022-07-29T08:40:15.650Z,4.00
2022-07-29T08:42:42.380Z,4.05
2022-07-29T08:45:09.544Z,3.55
2022-07-29T08:47:40.319Z,3.58
2022-07-29T08:50:11.057Z,3.33
2022-07-29T08:52:39.461Z,4.00
2022-07-29T08:55:08.440Z,3.20
2022-07-29T08:57:37.152Z,3.17
2022-07-29T09:00:11.590Z,2.97
2022-07-29T09:02:46.737Z,3.42
2022-07-29T09:05:13.979Z,4.15
2022-07-29T09:07:40.975Z,4.18
2022-07-29T09:10:07.941Z,4.28
2022-07-29T09:12:38.001Z,3.70
2022-07-29T09:15:05.105Z,4.38
2022-07-29T09:17:45.516Z,3.50
2022-07-29T09:20:14.824Z,3.95
2022-07-29T09:22:42.442Z,4.18
2022-07-29T09:25:09.477Z,3.45
2022-07-29T09:27:36.589Z,3.33
2022-07-29T09:30:08.322Z,3.85
2022-07-29T09:32:55.215Z,3.78
2022-07-29T09:35:23.730Z,3.97
2022-07-29T09:37:50.765Z,4.75
2022-07-29T09:40:22.863Z,3.42
2022-07-29T09:42:50.226Z,3.17
2022-07-29T09:45:34.557Z,3.33
2022-07-29T09:48:14.758Z,3.38
2022-07-29T09:50:42.203Z,3.50
2022-07-29T09:53:10.515Z,4.15
2022-07-29T09:55:51.785Z,3.60
2022-07-29T09:58:20.663Z,2.72
2022-07-29T10:00:48.801Z,2.63
2022-07-29T10:03:16.982Z,2.33
2022-07-29T10:05:44.363Z,2.35
2022-07-29T10:08:13.208Z,2.92
2022-07-29T10:10:42.390Z,3.10
2022-07-29T10:13:15.340Z,3.15
2022-07-29T10:15:46.073Z,3.50
2022-07-29T10:18:14.517Z,3.42
2022-07-29T10:20:41.336Z,3.97
2022-07-29T10:23:08.086Z,3.80
2022-07-29T10:25:34.599Z,4.10
2022-07-29T10:28:01.060Z,4.35
2022-07-29T10:30:28.022Z,3.05
2022-07-29T10:32:57.194Z,3.67
2022-07-29T10:35:38.792Z,3.30
2022-07-29T10:38:30.215Z,3.60
2022-07-29T10:41:32.305Z,3.30
2022-07-29T10:44:04.686Z,2.88
2022-07-29T10:46:37.400Z,2.58
2022-07-29T10:49:15.541Z,2.20
2022-07-29T10:51:51.082Z,2.47
2022-07-29T10:54:43.890Z,2.00
2022-07-29T10:57:53.859Z,1.98
2022-07-29T11:00:28.537Z,1.90
2022-07-29T11:02:57.536Z,2.28
2022-07-29T11:05:25.406Z,1.92
2022-07-29T11:08:20.044Z,2.35
2022-07-29T11:10:48.381Z,2.35
2022-07-29T11:13:44.039Z,2.15
2022-07-29T11:16:10.690Z,2.55
2022-07-29T11:18:57.831Z,2.40
2022-07-29T11:21:53.378Z,2.47
2022-07-29T11:24:29.221Z,2.63
2022-07-29T11:27:19.405Z,3.10
2022-07-29T11:29:51.958Z,3.22
2022-07-29T11:32:23.109Z,2.90
2022-07-29T11:34:51.517Z,2.58
2022-07-29T11:37:20.082Z,3.65
2022-07-29T11:39:54.174Z,2.90
2022-07-29T11:42:32.380Z,2.80
2022-07-29T11:45:09.265Z,2.63
2022-07-29T11:48:05.340Z,3.35
2022-07-29T11:50:45.720Z,3.00
2022-07-29T11:53:16.077Z,2.90
2022-07-29T11:55:50.841Z,3.35
2022-07-29T11:58:25.184Z,3.28
2022-07-29T12:00:52.953Z,4.85
2022-07-29T12:03:32.792Z,3.65
2022-07-29T12:06:02.486Z,3.33
2022-07-29T12:08:28.956Z,2.95
2022-07-29T12:10:55.455Z,2.95
2022-07-29T12:13:22.442Z,2.67
2022-07-29T12:15:57.847Z,3.05
2022-07-29T12:18:27.842Z,3.35
2022-07-29T12:20:59.389Z,3.00
2022-07-29T12:23:35.108Z,9.77
2022-07-29T12:26:07.521Z,3.03
2022-07-29T12:28:40.087Z,3.03
2022-07-29T12:31:08.274Z,3.55
2022-07-29T12:33:35.859Z,3.00
2022-07-29T12:36:06.867Z,3.75
2022-07-29T12:38:41.239Z,3.40
2022-07-29T12:41:07.900Z,3.22
2022-07-29T12:43:34.452Z,3.38
2022-07-29T12:46:14.176Z,2.95
2022-07-29T12:48:42.770Z,2.75
2022-07-29T12:51:11.038Z,3.92
2022-07-29T12:53:38.317Z,3.30
2022-07-29T12:56:20.791Z,3.28
2022-07-29T12:58:52.662Z,4.07
2022-07-29T13:01:20.934Z,3.85
2022-07-29T13:03:57.700Z,4.75
2022-07-29T13:06:37.537Z,6.05
2022-07-29T13:09:16.979Z,5.53
2022-07-29T13:11:48.946Z,3.50
2022-07-29T13:14:32.551Z,3.00
2022-07-29T13:17:10.970Z,2.88
2022-07-29T13:19:43.025Z,2.88
2022-07-29T13:22:11.448Z,3.30
2022-07-29T13:24:53.915Z,3.50
2022-07-29T13:27:27.217Z,3.58
2022-07-29T13:29:57.329Z,3.65
2022-07-29T13:32:28.772Z,3.45
2022-07-29T13:35:01.142Z,3.70
2022-07-29T13:37:34.910Z,3.00
2022-07-29T13:40:03.995Z,3.20
2022-07-29T13:42:30.645Z,3.38
2022-07-29T13:44:57.121Z,3.13
2022-07-29T13:47:32.727Z,3.10
2022-07-29T13:50:00.455Z,2.78
2022-07-29T13:52:26.982Z,3.30
2022-07-29T13:54:53.483Z,3.30
2022-07-29T13:57:20.219Z,3.20
2022-07-29T13:59:49.460Z,3.60
2022-07-29T14:02:19.967Z,3.42
2022-07-29T14:04:46.484Z,3.15
2022-07-29T14:07:16.427Z,3.33
2022-07-29T14:09:43.300Z,3.53
2022-07-29T14:12:10.201Z,3.17
2022-07-29T14:14:37.562Z,3.50
2022-07-29T14:17:04.738Z,3.25
2022-07-29T14:19:33.007Z,3.40
2022-07-29T14:21:59.893Z,3.45
2022-07-29T14:24:26.731Z,3.20
2022-07-29T14:26:53.260Z,3.63
2022-07-29T14:29:19.880Z,3.40
2022-07-29T14:31:46.379Z,3.10
2022-07-29T14:34:12.912Z,3.28
2022-07-29T14:36:39.361Z,3.60
2022-07-29T14:39:05.785Z,3.30
2022-07-29T14:41:32.237Z,3.28
2022-07-29T14:44:01.462Z,3.20
2022-07-29T14:46:28.882Z,3.65
2022-07-29T14:48:55.662Z,3.78
2022-07-29T14:51:22.318Z,3.50
2022-07-29T14:53:48.835Z,3.58
2022-07-29T14:56:36.102Z,3.40
2022-07-29T14:59:01.773Z,3.30
2022-07-29T15:01:28.362Z,3.00
2022-07-29T15:03:59.528Z,3.42
2022-07-29T15:06:26.961Z,3.15
2022-07-29T15:08:53.394Z,3.30
2022-07-29T15:11:19.849Z,2.95
2022-07-29T15:13:46.344Z,3.30
2022-07-29T15:16:13.353Z,3.50
2022-07-29T15:18:39.817Z,3.15
2022-07-29T15:21:07.824Z,3.17
2022-07-29T15:23:37.180Z,3.28
2022-07-29T15:26:04.732Z,3.40
2022-07-29T15:28:31.261Z,2.92
2022-07-29T15:30:57.976Z,2.85
2022-07-29T15:33:24.464Z,3.10
2022-07-29T15:35:51.164Z,3.03
2022-07-29T15:38:17.717Z,3.00
2022-07-29T15:40:45.305Z,2.90
2022-07-29T15:43:12.554Z,3.60
2022-07-29T15:45:42.427Z,3.42
2022-07-29T15:48:10.132Z,2.95
2022-07-29T15:50:41.226Z,3.08
2022-07-29T15:53:07.736Z,2.97
2022-07-29T15:55:34.208Z,3.10
2022-07-29T15:58:00.957Z,3.00
2022-07-29T16:00:27.979Z,2.95
2022-07-29T16:02:54.431Z,3.30
2022-07-29T16:05:23.144Z,2.90
2022-07-29T16:07:49.593Z,2.97
2022-07-29T16:10:15.970Z,3.27
2022-07-29T16:12:42.381Z,2.92
2022-07-29T16:15:10.387Z,3.33
2022-07-29T16:17:38.894Z,3.10
2022-07-29T16:20:06.389Z,3.20
2022-07-29T16:22:32.995Z,3.17
2022-07-29T16:24:59.580Z,2.90
2022-07-29T16:27:35.507Z,2.60
2022-07-29T16:30:06.379Z,3.40
2022-07-29T16:32:32.822Z,2.90
2022-07-29T16:35:01.971Z,3.00
2022-07-29T16:37:33.453Z,3.65
2022-07-29T16:40:00.006Z,3.53
2022-07-29T16:42:45.376Z,2.80
2022-07-29T16:45:12.839Z,3.00
2022-07-29T16:47:39.365Z,3.30
2022-07-29T16:50:06.324Z,2.67
2022-07-29T16:52:32.782Z,2.50
2022-07-29T16:54:59.197Z,2.63
2022-07-29T16:57:25.643Z,2.50
2022-07-29T16:59:52.201Z,2.77
2022-07-29T17:02:18.963Z,2.67
2022-07-29T17:04:45.429Z,2.80
2022-07-29T17:07:12.062Z,2.60
2022-07-29T17:09:38.530Z,2.55
2022-07-29T17:12:05.449Z,2.60
2022-07-29T17:14:31.959Z,2.60
2022-07-29T17:17:00.379Z,2.60
2022-07-29T17:19:30.606Z,2.60
2022-07-29T17:22:06.345Z,2.58
2022-07-29T17:24:37.195Z,2.60
2022-07-29T17:27:04.849Z,2.50
2022-07-29T17:29:31.418Z,2.35
2022-07-29T17:31:59.434Z,2.58
2022-07-29T17:34:25.936Z,2.00
2022-07-29T17:36:52.919Z,2.20
2022-07-29T17:39:19.346Z,2.00
2022-07-29T17:41:46.808Z,2.00
2022-07-29T17:44:13.626Z,2.30
2022-07-29T17:46:40.453Z,2.53
2022-07-29T17:49:07.046Z,2.13
2022-07-29T17:51:34.089Z,2.22
2022-07-29T17:54:00.496Z,2.35
2022-07-29T17:56:27.009Z,2.53
2022-07-29T17:58:54.094Z,2.00
2022-07-29T18:01:20.876Z,2.00
2022-07-29T18:03:47.456Z,2.03
2022-07-29T18:06:14.062Z,2.38
2022-07-29T18:08:40.644Z,2.08
2022-07-29T18:11:07.094Z,2.22
2022-07-29T18:13:33.586Z,2.23
2022-07-29T18:16:00.828Z,1.83
2022-07-29T18:18:27.592Z,1.90
2022-07-29T18:20:54.180Z,2.10
2022-07-29T18:23:20.618Z,2.08
2022-07-29T18:25:47.136Z,1.93
2022-07-29T18:28:13.603Z,1.83
2022-07-29T18:30:40.095Z,2.00
2022-07-29T18:33:23.931Z,1.95
2022-07-29T18:36:10.499Z,2.15
2022-07-29T18:38:39.242Z,1.87
2022-07-29T18:41:05.694Z,1.80
2022-07-29T18:43:32.104Z,1.90
2022-07-29T18:45:58.542Z,2.03
2022-07-29T18:48:25.126Z,2.20
2022-07-29T18:50:51.610Z,2.00
2022-07-29T18:53:18.187Z,2.10
2022-07-29T18:55:44.777Z,1.73
2022-07-29T18:58:11.282Z,2.10
2022-07-29T19:00:37.941Z,2.05
2022-07-29T19:03:04.488Z,2.20
2022-07-29T19:05:31.057Z,1.90
2022-07-29T19:07:57.515Z,2.00
2022-07-29T19:10:24.058Z,2.25
2022-07-29T19:12:50.569Z,2.05
2022-07-29T19:15:20.198Z,1.97
2022-07-29T19:17:47.921Z,1.83
2022-07-29T19:20:14.443Z,2.20
2022-07-29T19:22:40.916Z,2.08
2022-07-29T19:25:07.830Z,2.10
2022-07-29T19:27:34.247Z,2.30
2022-07-29T19:30:00.695Z,2.20
2022-07-29T19:32:27.138Z,2.10
2022-07-29T19:35:12.166Z,2.15
2022-07-29T19:37:38.625Z,2.10
2022-07-29T19:40:06.671Z,2.10
2022-07-29T19:42:33.442Z,2.10
2022-07-29T19:44:59.985Z,2.17
2022-07-29T19:47:26.459Z,2.08
2022-07-29T19:49:52.917Z,2.10
2022-07-29T19:52:19.381Z,2.10
2022-07-29T19:54:45.991Z,2.38
2022-07-29T19:57:12.476Z,2.05
2022-07-29T19:59:40.626Z,1.92
2022-07-29T20:02:09.906Z,2.40
2022-07-29T20:04:36.979Z,1.93
2022-07-29T20:07:03.734Z,1.80
2022-07-29T20:09:30.380Z,1.83
2022-07-29T20:11:57.217Z,2.05
2022-07-29T20:14:23.995Z,2.20
2022-07-29T20:16:50.768Z,2.23
2022-07-29T20:19:17.361Z,2.15
2022-07-29T20:21:44.164Z,2.10
2022-07-29T20:24:10.697Z,2.17
2022-07-29T20:26:37.612Z,2.20
2022-07-29T20:29:05.322Z,2.20
2022-07-29T20:31:32.507Z,2.42
2022-07-29T20:33:59.992Z,2.20
2022-07-29T20:36:26.922Z,2.00
2022-07-29T20:38:55.733Z,1.85
2022-07-29T20:41:22.829Z,1.80
2022-07-29T20:43:52.761Z,1.98
2022-07-29T20:46:19.280Z,2.05
2022-07-29T20:48:46.909Z,1.95
2022-07-29T20:51:14.194Z,2.28
2022-07-29T20:53:41.176Z,2.10
2022-07-29T20:56:07.950Z,2.20
2022-07-29T20:58:36.149Z,2.20
2022-07-29T21:01:03.082Z,2.08
2022-07-29T21:03:29.723Z,2.20
2022-07-29T21:05:56.440Z,1.93
2022-07-29T21:08:23.030Z,2.05
2022-07-29T21:10:49.547Z,2.00
2022-07-29T21:13:16.664Z,2.22
2022-07-29T21:15:46.162Z,2.38
2022-07-29T21:18:28.047Z,2.20
2022-07-29T21:20:54.917Z,1.85
2022-07-29T21:23:21.571Z,2.13
2022-07-29T21:25:48.095Z,2.25
2022-07-29T21:28:26.611Z,2.28
2022-07-29T21:30:59.284Z,2.30
2022-07-29T21:33:28.492Z,2.10
2022-07-29T21:38:41.823Z,2.20
2022-07-29T21:41:08.422Z,2.22
2022-07-29T21:43:34.888Z,2.00
2022-07-29T21:46:01.572Z,2.15
2022-07-29T21:48:28.509Z,2.70
2022-07-29T21:50:55.389Z,2.22
2022-07-29T21:53:22.946Z,2.00
2022-07-29T21:55:52.128Z,2.23
2022-07-29T21:58:21.967Z,2.30
2022-07-29T22:00:49.050Z,2.30
2022-07-29T22:03:15.582Z,2.40
2022-07-29T22:05:42.525Z,2.40
2022-07-29T22:08:09.034Z,2.17
2022-07-29T22:10:35.793Z,2.20
2022-07-29T22:13:02.979Z,2.15
2022-07-29T22:15:30.117Z,2.53
2022-07-29T22:17:56.953Z,2.38
2022-07-29T22:20:24.108Z,2.20
2022-07-29T22:22:50.537Z,2.03
2022-07-29T22:25:17.690Z,2.10
2022-07-29T22:27:44.763Z,2.20
2022-07-29T22:30:12.054Z,2.17
2022-07-29T22:32:38.543Z,2.10
2022-07-29T22:35:05.453Z,2.30
2022-07-29T22:37:31.930Z,2.40
2022-07-29T22:39:58.494Z,2.20
2022-07-29T22:42:25.550Z,2.13
2022-07-29T22:44:51.997Z,2.30
2022-07-29T22:47:18.566Z,2.00
2022-07-29T22:50:06.276Z,2.30
2022-07-29T22:52:32.648Z,2.20
2022-07-29T22:54:59.294Z,2.00
2022-07-29T22:57:26.423Z,2.47
2022-07-29T22:59:53.329Z,2.63
2022-07-29T23:02:19.766Z,2.08
2022-07-29T23:04:46.182Z,2.40
2022-07-29T23:07:12.580Z,2.20
2022-07-29T23:09:39.089Z,2.40
2022-07-29T23:12:05.745Z,2.55
2022-07-29T23:14:32.609Z,2.40
2022-07-29T23:16:59.307Z,2.30
2022-07-29T23:19:25.964Z,2.25
2022-07-29T23:21:52.393Z,2.10
2022-07-29T23:24:18.841Z,2.28
2022-07-29T23:26:45.365Z,2.20
2022-07-29T23:29:11.761Z,2.55
2022-07-29T23:31:41.797Z,2.67
2022-07-29T23:34:14.378Z,2.23
2022-07-29T23:36:42.123Z,2.35
2022-07-29T23:39:11.292Z,2.20
2022-07-29T23:41:38.065Z,2.20
2022-07-29T23:44:04.862Z,2.35
2022-07-29T23:46:31.418Z,2.30
2022-07-29T23:48:57.912Z,2.33
2022-07-29T23:51:24.860Z,2.35
2022-07-29T23:53:53.269Z,2.50
2022-07-29T23:56:20.787Z,2.40
2022-07-29T23:58:47.240Z,2.20
